createdAt,value
2023-04-07T00:02:22.855Z,0.80
2023-04-07T00:04:51.215Z,0.90
2023-04-07T00:07:19.202Z,1.00
2023-04-07T00:09:49.100Z,1.00
2023-04-07T00:12:16.985Z,1.10
2023-04-07T00:14:45.666Z,0.90
2023-04-07T00:17:18.096Z,1.10
2023-04-07T00:19:45.974Z,0.90
2023-04-07T00:22:13.801Z,1.60
2023-04-07T00:24:41.617Z,0.80
2023-04-07T00:27:09.474Z,0.90
2023-04-07T00:29:37.310Z,2.30
2023-04-07T00:32:07.468Z,0.70
2023-04-07T00:34:35.929Z,0.70
2023-04-07T00:37:03.975Z,1.10
2023-04-07T00:39:32.717Z,0.60
2023-04-07T00:42:01.009Z,0.60
2023-04-07T00:44:29.551Z,0.60
2023-04-07T00:46:57.460Z,0.50
2023-04-07T00:49:28.457Z,2.30
2023-04-07T00:51:57.531Z,0.50
2023-04-07T00:54:27.667Z,0.50
2023-04-07T00:56:55.680Z,0.40
2023-04-07T00:59:23.746Z,1.80
2023-04-07T01:02:07.082Z,0.50
2023-04-07T01:04:41.701Z,0.40
2023-04-07T01:07:15.686Z,0.40
2023-04-07T01:09:48.727Z,0.70
2023-04-07T01:12:33.087Z,0.50
2023-04-07T01:15:07.065Z,0.40
2023-04-07T01:17:45.516Z,0.40
2023-04-07T01:20:16.455Z,0.40
2023-04-07T01:22:54.522Z,0.30
2023-04-07T01:25:23.756Z,0.30
2023-04-07T01:28:15.945Z,0.30
2023-04-07T01:30:43.956Z,0.20
2023-04-07T01:33:12.651Z,0.20
2023-04-07T01:35:40.584Z,0.20
2023-04-07T01:38:08.526Z,0.20
2023-04-07T01:40:37.088Z,0.30
2023-04-07T01:43:05.380Z,0.80
2023-04-07T01:45:34.682Z,0.30
2023-04-07T01:48:05.658Z,0.30
2023-04-07T01:50:33.787Z,0.30
2023-04-07T01:53:02.264Z,0.30
2023-04-07T01:55:30.666Z,0.30
2023-04-07T01:58:10.406Z,0.30
2023-04-07T02:00:41.998Z,0.30
2023-04-07T02:03:21.418Z,0.30
2023-04-07T02:05:51.805Z,0.30
2023-04-07T02:08:20.374Z,0.30
2023-04-07T02:10:53.409Z,0.30
2023-04-07T02:13:22.431Z,0.30
2023-04-07T02:15:50.992Z,0.30
2023-04-07T02:18:19.790Z,0.50
2023-04-07T02:20:48.066Z,2.10
2023-04-07T02:23:16.451Z,0.20
2023-04-07T02:25:44.559Z,0.30
2023-04-07T02:28:12.607Z,0.60
2023-04-07T02:30:40.884Z,0.30
2023-04-07T02:33:09.429Z,0.40
2023-04-07T02:35:37.349Z,0.50
2023-04-07T02:38:05.545Z,0.30
2023-04-07T02:40:37.333Z,0.90
2023-04-07T02:43:05.979Z,0.40
2023-04-07T02:45:34.287Z,0.30
2023-04-07T02:48:06.136Z,0.60
2023-04-07T02:50:34.564Z,0.30
2023-04-07T02:53:02.673Z,0.30
2023-04-07T02:55:31.294Z,0.30
2023-04-07T02:57:59.166Z,0.40
2023-04-07T03:00:38.648Z,0.40
2023-04-07T03:03:13.320Z,0.40
2023-04-07T03:05:43.477Z,0.40
2023-04-07T03:08:12.976Z,0.60
2023-04-07T03:10:41.800Z,0.50
2023-04-07T03:13:12.971Z,0.30
2023-04-07T03:15:45.855Z,0.40
2023-04-07T03:18:17.781Z,0.30
2023-04-07T03:20:48.390Z,0.30
2023-04-07T03:23:17.640Z,0.20
2023-04-07T03:25:47.487Z,0.40
2023-04-07T03:28:17.141Z,0.30
2023-04-07T03:30:47.339Z,0.30
2023-04-07T03:33:15.773Z,0.30
2023-04-07T03:35:43.669Z,0.30
2023-04-07T03:38:12.111Z,0.30
2023-04-07T03:40:40.468Z,0.50
2023-04-07T03:43:13.992Z,0.30
2023-04-07T03:45:42.567Z,0.40
2023-04-07T03:48:11.961Z,0.30
2023-04-07T03:50:46.998Z,0.30
2023-04-07T03:53:19.429Z,0.30
2023-04-07T03:55:47.810Z,0.40
2023-04-07T03:58:22.412Z,0.80
2023-04-07T04:00:50.422Z,0.40
2023-04-07T04:03:19.882Z,0.40
2023-04-07T04:06:17.477Z,0.50
2023-04-07T04:08:46.098Z,0.50
2023-04-07T04:11:14.908Z,0.40
2023-04-07T04:13:53.798Z,1.10
2023-04-07T04:16:22.324Z,0.50
2023-04-07T04:18:50.714Z,0.60
2023-04-07T04:21:24.265Z,0.50
2023-04-07T04:23:52.572Z,0.60
2023-04-07T04:26:25.945Z,1.20
2023-04-07T04:30:02.361Z,16.20
2023-04-07T04:32:39.751Z,4.10
2023-04-07T04:35:08.037Z,23.30
2023-04-07T04:37:41.338Z,44.10
2023-04-07T04:40:12.677Z,39.70
2023-04-07T04:42:41.566Z,31.30
2023-04-07T04:45:10.220Z,12.10
2023-04-07T04:47:40.521Z,1.00
2023-04-07T04:50:09.088Z,1.70
2023-04-07T04:52:39.516Z,0.70
2023-04-07T04:55:09.054Z,1.10
2023-04-07T04:57:37.138Z,1.10
2023-04-07T05:00:09.985Z,2.70
2023-04-07T05:02:38.740Z,12.20
2023-04-07T05:05:07.853Z,2.80
2023-04-07T05:07:40.546Z,3.20
2023-04-07T05:10:09.681Z,2.10
2023-04-07T05:12:39.575Z,3.50
2023-04-07T05:15:08.694Z,7.90
2023-04-07T05:17:37.108Z,2.80
2023-04-07T05:20:06.010Z,1.70
2023-04-07T05:22:40.234Z,2.10
2023-04-07T05:25:09.880Z,0.90
2023-04-07T05:27:38.567Z,0.60
2023-04-07T05:30:13.074Z,0.80
2023-04-07T05:32:41.904Z,0.90
2023-04-07T05:35:16.937Z,0.70
2023-04-07T05:37:57.087Z,0.60
2023-04-07T05:40:25.521Z,0.60
2023-04-07T05:42:53.875Z,0.60
2023-04-07T05:45:22.135Z,0.60
2023-04-07T05:47:50.905Z,0.60
2023-04-07T05:50:25.507Z,0.70
2023-04-07T05:52:53.769Z,0.80
2023-04-07T05:55:27.565Z,0.50
2023-04-07T05:57:56.101Z,0.50
2023-04-07T06:00:25.197Z,0.60
2023-04-07T06:03:02.059Z,0.50
2023-04-07T06:05:32.243Z,0.40
2023-04-07T06:08:00.283Z,0.40
2023-04-07T06:10:28.367Z,0.70
2023-04-07T06:12:56.619Z,0.60
2023-04-07T06:15:24.465Z,0.60
2023-04-07T06:17:56.158Z,0.60
2023-04-07T06:20:27.762Z,0.60
2023-04-07T06:22:55.540Z,0.60
2023-04-07T06:25:23.301Z,0.60
2023-04-07T06:27:51.813Z,0.50
2023-04-07T06:30:20.176Z,0.70
2023-04-07T06:32:48.980Z,0.60
2023-04-07T06:35:17.014Z,0.50
2023-04-07T06:37:46.299Z,1.90
2023-04-07T06:40:14.043Z,1.50
2023-04-07T06:42:41.996Z,0.60
2023-04-07T06:45:19.090Z,0.70
2023-04-07T06:47:46.903Z,0.60
2023-04-07T06:50:14.651Z,0.50
2023-04-07T06:52:43.438Z,0.70
2023-04-07T06:55:16.325Z,0.60
2023-04-07T06:57:45.367Z,0.60
2023-04-07T07:00:13.433Z,0.60
2023-04-07T07:02:41.487Z,0.80
2023-04-07T07:05:11.468Z,0.80
2023-04-07T07:07:39.876Z,1.20
2023-04-07T07:10:09.067Z,0.80
2023-04-07T07:12:39.541Z,0.80
2023-04-07T07:15:07.743Z,2.60
2023-04-07T07:17:36.092Z,1.90
2023-04-07T07:20:04.174Z,1.10
2023-04-07T07:22:32.860Z,1.20
2023-04-07T07:25:01.086Z,3.90
2023-04-07T07:27:29.033Z,1.10
2023-04-07T07:29:56.892Z,4.70
2023-04-07T07:32:24.826Z,2.60
2023-04-07T07:34:52.948Z,1.60
2023-04-07T07:37:23.639Z,1.90
2023-04-07T07:39:51.458Z,1.70
2023-04-07T07:42:19.357Z,1.00
2023-04-07T07:44:47.810Z,1.30
2023-04-07T07:47:15.604Z,1.10
2023-04-07T07:49:43.430Z,4.70
2023-04-07T07:52:11.366Z,1.40
2023-04-07T07:54:39.128Z,1.10
2023-04-07T07:57:06.997Z,1.40
2023-04-07T07:59:36.006Z,1.10
2023-04-07T08:02:04.382Z,0.90
2023-04-07T08:04:33.725Z,1.20
2023-04-07T08:07:02.056Z,15.50
2023-04-07T08:09:30.526Z,2.10
2023-04-07T08:11:58.656Z,2.00
2023-04-07T08:14:27.566Z,1.80
2023-04-07T08:16:55.570Z,1.50
2023-04-07T08:19:24.053Z,1.70
2023-04-07T08:21:51.796Z,1.80
2023-04-07T08:24:19.840Z,1.60
2023-04-07T08:26:48.391Z,1.50
2023-04-07T08:29:16.335Z,1.50
2023-04-07T08:31:44.237Z,1.30
2023-04-07T08:34:13.842Z,1.30
2023-04-07T08:36:44.011Z,1.70
2023-04-07T08:39:12.092Z,1.10
2023-04-07T08:41:41.022Z,1.40
2023-04-07T08:44:12.288Z,1.00
2023-04-07T08:46:40.607Z,1.20
2023-04-07T08:49:09.188Z,1.20
2023-04-07T08:51:37.871Z,1.60
2023-04-07T08:54:07.347Z,1.60
2023-04-07T08:56:41.487Z,1.00
2023-04-07T08:59:10.337Z,1.30
2023-04-07T09:01:38.752Z,1.30
2023-04-07T09:04:07.921Z,1.20
2023-04-07T09:06:35.965Z,1.00
2023-04-07T09:09:06.250Z,1.00
2023-04-07T09:11:37.360Z,1.40
2023-04-07T09:14:05.498Z,1.00
2023-04-07T09:16:33.697Z,1.30
2023-04-07T09:19:01.747Z,1.40
2023-04-07T09:21:51.665Z,1.10
2023-04-07T09:24:23.377Z,1.00
2023-04-07T09:26:51.691Z,1.90
2023-04-07T09:29:19.972Z,1.40
2023-04-07T09:31:55.440Z,1.00
2023-04-07T09:34:24.324Z,1.20
2023-04-07T09:36:52.513Z,1.40
2023-04-07T09:39:20.845Z,1.40
2023-04-07T09:41:48.732Z,1.00
2023-04-07T09:44:16.681Z,1.40
2023-04-07T09:46:52.568Z,1.30
2023-04-07T09:49:21.322Z,1.30
2023-04-07T09:51:52.615Z,1.30
2023-04-07T09:54:37.597Z,1.60
2023-04-07T09:57:06.212Z,1.30
2023-04-07T09:59:37.783Z,1.90
2023-04-07T10:02:06.257Z,1.20
2023-04-07T10:04:34.495Z,1.10
2023-04-07T10:07:03.739Z,1.00
2023-04-07T10:09:31.829Z,1.10
2023-04-07T10:12:00.039Z,1.30
2023-04-07T10:14:28.556Z,1.00
2023-04-07T10:16:59.760Z,1.00
2023-04-07T10:19:29.925Z,2.70
2023-04-07T10:21:57.732Z,1.70
2023-04-07T10:24:49.756Z,1.20
2023-04-07T10:27:19.264Z,1.20
2023-04-07T10:29:49.109Z,1.20
2023-04-07T10:32:17.499Z,0.80
2023-04-07T10:34:55.987Z,1.50
2023-04-07T10:37:24.163Z,1.90
2023-04-07T10:39:52.823Z,1.30
2023-04-07T10:42:39.316Z,1.40
2023-04-07T10:45:08.140Z,1.10
2023-04-07T10:48:03.863Z,1.30
2023-04-07T10:50:31.916Z,1.20
2023-04-07T10:53:09.550Z,2.90
2023-04-07T10:55:38.037Z,1.00
2023-04-07T10:58:16.417Z,1.20
2023-04-07T11:00:57.633Z,1.00
2023-04-07T11:03:25.978Z,1.30
2023-04-07T11:06:10.638Z,0.80
2023-04-07T11:08:42.689Z,0.80
2023-04-07T11:11:12.480Z,0.70
2023-04-07T11:13:41.289Z,1.50
2023-04-07T11:16:09.585Z,6.20
2023-04-07T11:18:42.045Z,3.00
2023-04-07T11:21:10.638Z,0.60
2023-04-07T11:23:40.603Z,0.70
2023-04-07T11:26:13.296Z,0.70
2023-04-07T11:28:47.397Z,0.90
2023-04-07T11:33:43.594Z,2.00
2023-04-07T11:36:11.540Z,1.60
2023-04-07T11:38:39.969Z,1.00
2023-04-07T11:41:12.045Z,1.30
2023-04-07T11:43:42.545Z,2.50
2023-04-07T11:46:12.195Z,0.90
2023-04-07T11:48:42.292Z,4.30
2023-04-07T11:51:20.434Z,0.80
2023-04-07T11:53:48.592Z,0.90
2023-04-07T11:56:17.021Z,1.50
2023-04-07T11:58:48.962Z,1.10
2023-04-07T12:01:17.002Z,0.80
2023-04-07T12:04:01.945Z,0.70
2023-04-07T12:06:34.905Z,0.70
2023-04-07T12:09:05.368Z,0.90
2023-04-07T12:11:33.364Z,0.80
2023-04-07T12:14:05.559Z,0.60
2023-04-07T12:16:37.611Z,1.00
2023-04-07T12:19:05.555Z,0.70
2023-04-07T12:21:35.516Z,0.60
2023-04-07T12:24:03.817Z,0.60
2023-04-07T12:26:31.761Z,1.20
2023-04-07T12:29:05.254Z,1.40
2023-04-07T12:31:33.965Z,0.70
2023-04-07T12:34:02.205Z,0.60
2023-04-07T12:36:30.774Z,0.70
2023-04-07T12:38:59.311Z,0.60
2023-04-07T12:41:27.783Z,0.60
2023-04-07T12:43:56.025Z,0.80
2023-04-07T12:46:26.866Z,0.80
2023-04-07T12:48:54.819Z,0.80
2023-04-07T12:51:22.820Z,0.70
2023-04-07T12:53:51.253Z,0.90
2023-04-07T12:56:19.250Z,0.80
2023-04-07T12:58:48.151Z,0.80
2023-04-07T13:01:16.935Z,0.70
2023-04-07T13:03:45.884Z,1.70
2023-04-07T13:06:18.640Z,2.10
2023-04-07T13:08:46.458Z,0.70
2023-04-07T13:11:14.216Z,1.70
2023-04-07T13:13:42.983Z,0.70
2023-04-07T13:16:11.014Z,0.70
2023-04-07T13:18:38.938Z,0.70
2023-04-07T13:21:38.177Z,0.60
2023-04-07T13:23:54.619Z,0.90
2023-04-07T13:26:22.560Z,0.70
2023-04-07T13:28:50.309Z,1.60
2023-04-07T13:31:18.467Z,0.80
2023-04-07T13:33:47.478Z,0.70
2023-04-07T13:36:15.554Z,2.50
2023-04-07T13:38:43.527Z,0.70
2023-04-07T13:41:11.309Z,0.80
2023-04-07T13:43:39.097Z,1.10
2023-04-07T13:46:17.221Z,1.30
2023-04-07T13:48:53.024Z,1.00
2023-04-07T13:51:21.657Z,1.50
2023-04-07T13:53:50.280Z,2.00
2023-04-07T13:56:18.435Z,1.50
2023-04-07T13:58:46.580Z,2.00
2023-04-07T14:01:14.646Z,1.40
2023-04-07T14:03:43.456Z,1.20
2023-04-07T14:06:11.414Z,4.00
2023-04-07T14:08:40.439Z,2.00
2023-04-07T14:11:08.395Z,2.30
2023-04-07T14:13:36.656Z,1.50
2023-04-07T14:16:04.953Z,2.10
2023-04-07T14:18:33.332Z,2.30
2023-04-07T14:21:11.205Z,2.50
2023-04-07T14:23:40.068Z,1.70
2023-04-07T14:26:11.844Z,1.40
2023-04-07T14:28:41.740Z,2.00
2023-04-07T14:31:14.313Z,2.50
2023-04-07T14:33:43.097Z,2.70
2023-04-07T14:36:12.009Z,1.30
2023-04-07T14:38:40.033Z,0.80
2023-04-07T14:41:10.276Z,1.10
2023-04-07T14:43:39.634Z,1.00
2023-04-07T14:46:12.560Z,1.10
2023-04-07T14:48:40.962Z,2.00
2023-04-07T14:51:12.924Z,1.30
2023-04-07T14:53:42.072Z,2.30
2023-04-07T14:56:09.809Z,2.20
2023-04-07T14:58:40.484Z,2.10
2023-04-07T15:01:08.527Z,1.00
2023-04-07T15:03:37.548Z,2.50
2023-04-07T15:06:08.917Z,1.50
2023-04-07T15:08:40.380Z,2.70
2023-04-07T15:11:08.244Z,1.50
2023-04-07T15:13:36.495Z,4.70
2023-04-07T15:16:10.963Z,1.60
2023-04-07T15:18:40.676Z,2.50
2023-04-07T15:21:08.943Z,0.80
2023-04-07T15:23:37.901Z,1.60
2023-04-07T15:26:05.982Z,0.90
2023-04-07T15:28:33.856Z,3.10
2023-04-07T15:31:02.096Z,1.00
2023-04-07T15:33:30.954Z,1.50
2023-04-07T15:36:00.119Z,2.50
2023-04-07T15:38:28.676Z,1.80
2023-04-07T15:40:56.755Z,2.20
2023-04-07T15:43:25.649Z,3.50
2023-04-07T15:45:54.237Z,1.70
2023-04-07T15:48:23.419Z,1.30
2023-04-07T15:50:52.053Z,1.30
2023-04-07T15:53:20.518Z,2.80
2023-04-07T15:55:48.440Z,2.20
2023-04-07T15:58:16.647Z,1.70
2023-04-07T16:00:45.150Z,1.90
2023-04-07T16:03:13.696Z,3.90
2023-04-07T16:05:42.147Z,2.30
2023-04-07T16:08:12.010Z,1.40
2023-04-07T16:10:43.040Z,4.00
2023-04-07T16:13:11.494Z,4.10
2023-04-07T16:15:41.238Z,2.20
2023-04-07T16:18:10.229Z,1.60
2023-04-07T16:20:40.399Z,3.80
2023-04-07T16:23:09.947Z,4.30
2023-04-07T16:25:38.113Z,1.30
2023-04-07T16:28:06.403Z,1.10
2023-04-07T16:30:34.376Z,5.60
2023-04-07T16:33:16.443Z,1.20
2023-04-07T16:35:44.516Z,7.90
2023-04-07T16:38:13.442Z,2.90
2023-04-07T16:40:44.092Z,1.80
2023-04-07T16:43:16.863Z,4.70
2023-04-07T16:47:08.778Z,4.00
2023-04-07T16:49:39.827Z,2.10
2023-04-07T16:52:07.898Z,5.00
2023-04-07T16:54:36.152Z,1.20
2023-04-07T16:57:05.661Z,4.40
2023-04-07T16:59:34.250Z,3.40
2023-04-07T17:02:12.605Z,5.70
2023-04-07T17:04:41.241Z,2.10
2023-04-07T17:07:09.430Z,2.80
2023-04-07T17:09:37.350Z,1.60
2023-04-07T17:12:06.171Z,1.40
2023-04-07T17:14:35.812Z,1.90
2023-04-07T17:17:03.778Z,1.90
2023-04-07T17:19:32.260Z,4.00
2023-04-07T17:22:00.196Z,4.00
2023-04-07T17:24:28.046Z,4.20
2023-04-07T17:26:56.364Z,5.10
2023-04-07T17:29:28.969Z,6.80
2023-04-07T17:31:57.075Z,6.70
2023-04-07T17:34:25.471Z,8.60
2023-04-07T17:37:01.105Z,21.90
2023-04-07T17:39:29.355Z,64.00
2023-04-07T17:41:57.315Z,46.90
2023-04-07T17:44:25.776Z,54.20
2023-04-07T17:46:54.681Z,43.30
2023-04-07T17:49:24.963Z,41.30
2023-04-07T17:51:54.129Z,41.30
2023-04-07T17:54:22.418Z,30.90
2023-04-07T17:56:50.385Z,28.20
2023-04-07T17:59:18.281Z,30.30
2023-04-07T18:01:51.354Z,24.00
2023-04-07T18:04:21.168Z,22.50
2023-04-07T18:06:49.112Z,21.90
2023-04-07T18:09:16.971Z,20.40
2023-04-07T18:11:48.992Z,19.80
2023-04-07T18:14:16.927Z,15.40
2023-04-07T18:16:44.813Z,14.20
2023-04-07T18:19:13.257Z,16.70
2023-04-07T18:21:41.655Z,15.00
2023-04-07T18:24:13.260Z,16.50
2023-04-07T18:26:43.877Z,22.50
2023-04-07T18:29:12.386Z,12.00
2023-04-07T18:31:43.962Z,16.30
2023-04-07T18:34:12.215Z,8.20
2023-04-07T18:36:41.162Z,14.00
2023-04-07T18:39:09.862Z,5.40
2023-04-07T18:41:37.733Z,5.50
2023-04-07T18:44:05.803Z,4.30
2023-04-07T18:46:33.884Z,3.20
2023-04-07T18:49:01.921Z,9.90
2023-04-07T18:51:30.103Z,8.90
2023-04-07T18:54:03.898Z,4.50
2023-04-07T18:56:33.624Z,4.30
2023-04-07T18:59:01.782Z,3.70
2023-04-07T19:01:29.864Z,4.80
2023-04-07T19:03:58.580Z,8.80
2023-04-07T19:06:26.658Z,8.60
2023-04-07T19:08:56.438Z,16.00
2023-04-07T19:11:25.752Z,26.50
2023-04-07T19:13:54.025Z,16.80
2023-04-07T19:16:24.826Z,15.60
2023-04-07T19:18:53.987Z,14.10
2023-04-07T19:21:22.258Z,16.80
2023-04-07T19:23:50.611Z,24.70
2023-04-07T19:26:18.873Z,23.60
2023-04-07T19:28:49.829Z,18.80
2023-04-07T19:31:17.957Z,18.90
2023-04-07T19:33:45.996Z,15.20
2023-04-07T19:36:15.836Z,12.20
2023-04-07T19:38:44.182Z,12.40
2023-04-07T19:41:12.209Z,10.70
2023-04-07T19:43:40.803Z,11.00
2023-04-07T19:46:09.242Z,8.10
2023-04-07T19:48:37.876Z,11.00
2023-04-07T19:51:07.285Z,7.70
2023-04-07T19:53:39.144Z,7.10
2023-04-07T19:56:07.310Z,10.80
2023-04-07T19:58:35.404Z,11.60
2023-04-07T20:01:04.505Z,8.70
2023-04-07T20:03:34.084Z,7.60
2023-04-07T20:06:03.225Z,9.60
2023-04-07T20:08:36.176Z,4.90
2023-04-07T20:11:12.857Z,6.60
2023-04-07T20:13:43.226Z,7.60
2023-04-07T20:16:11.291Z,10.10
2023-04-07T20:18:39.423Z,8.70
2023-04-07T20:21:09.882Z,9.20
2023-04-07T20:23:38.887Z,9.50
2023-04-07T20:26:09.051Z,7.50
2023-04-07T20:28:36.964Z,8.50
2023-04-07T20:31:05.583Z,8.40
2023-04-07T20:33:33.648Z,10.50
2023-04-07T20:36:02.175Z,8.30
2023-04-07T20:38:30.666Z,10.30
2023-04-07T20:41:01.948Z,10.70
2023-04-07T20:43:30.818Z,11.60
2023-04-07T20:45:59.023Z,5.60
2023-04-07T20:48:28.172Z,11.20
2023-04-07T20:50:56.296Z,7.60
2023-04-07T20:53:24.988Z,13.60
2023-04-07T20:55:53.177Z,10.60
2023-04-07T20:58:21.164Z,19.70
2023-04-07T21:00:53.723Z,27.90
2023-04-07T21:03:23.442Z,21.90
2023-04-07T21:05:52.230Z,27.10
2023-04-07T21:08:24.625Z,23.90
2023-04-07T21:10:53.571Z,29.50
2023-04-07T21:13:22.501Z,28.70
2023-04-07T21:15:51.341Z,24.00
2023-04-07T21:18:20.323Z,20.90
2023-04-07T21:20:48.381Z,18.80
2023-04-07T21:23:16.942Z,17.30
2023-04-07T21:25:45.050Z,15.90
2023-04-07T21:28:16.382Z,14.30
2023-04-07T21:31:54.372Z,19.40
2023-04-07T21:34:22.583Z,18.90
2023-04-07T21:36:50.689Z,20.10
2023-04-07T21:39:18.803Z,18.90
2023-04-07T21:41:47.197Z,17.80
2023-04-07T21:44:19.822Z,14.30
2023-04-07T21:46:47.951Z,17.00
2023-04-07T21:49:17.930Z,12.80
2023-04-07T21:51:45.810Z,10.80
2023-04-07T21:54:13.781Z,10.10
2023-04-07T21:56:41.650Z,9.70
2023-04-07T21:59:10.154Z,10.00
2023-04-07T22:01:38.456Z,10.20
2023-04-07T22:04:06.517Z,9.20
2023-04-07T22:06:35.061Z,10.00
2023-04-07T22:09:03.598Z,9.50
2023-04-07T22:11:31.901Z,11.00
2023-04-07T22:13:59.719Z,12.70
2023-04-07T22:16:27.670Z,9.90
2023-04-07T22:19:01.308Z,14.80
2023-04-07T22:21:29.891Z,11.40
2023-04-07T22:23:58.187Z,12.50
2023-04-07T22:26:27.918Z,10.60
2023-04-07T22:28:56.285Z,11.10
2023-04-07T22:31:24.222Z,12.10
2023-04-07T22:33:52.446Z,10.90
2023-04-07T22:36:20.619Z,10.50
2023-04-07T22:38:50.453Z,10.90
2023-04-07T22:41:18.571Z,12.20
2023-04-07T22:43:46.443Z,11.20
2023-04-07T22:46:15.890Z,11.70
2023-04-07T22:48:43.967Z,11.60
2023-04-07T22:51:12.346Z,11.30
2023-04-07T22:53:40.577Z,14.20
2023-04-07T22:56:13.023Z,12.00
2023-04-07T22:58:41.392Z,14.00
2023-04-07T23:01:09.311Z,15.10
2023-04-07T23:03:38.306Z,12.60
2023-04-07T23:06:06.329Z,9.80
2023-04-07T23:08:34.210Z,9.40
2023-04-07T23:11:02.667Z,10.30
2023-04-07T23:13:31.041Z,8.00
2023-04-07T23:15:59.599Z,10.50
2023-04-07T23:18:28.240Z,8.70
2023-04-07T23:20:56.254Z,6.90
2023-04-07T23:23:29.760Z,7.20
2023-04-07T23:25:57.644Z,8.30
2023-04-07T23:28:25.984Z,6.10
2023-04-07T23:30:57.624Z,9.20
2023-04-07T23:33:26.827Z,10.60
2023-04-07T23:35:55.252Z,8.10
2023-04-07T23:38:24.777Z,9.90
2023-04-07T23:40:53.466Z,5.20
2023-04-07T23:43:22.231Z,5.90
2023-04-07T23:45:50.744Z,7.30
2023-04-07T23:48:19.598Z,5.40
2023-04-07T23:50:49.217Z,5.80
2023-04-07T23:53:21.162Z,7.10
2023-04-07T23:55:50.560Z,6.40
2023-04-07T23:58:18.402Z,5.30
